WetterOnline ( https://www.wetteronline.de )

Wetter aktuell Finsterwalde

Aktuelles Wetter: Kirchhain (100m)

6-stündlich | Neueste Meldungen
Ortszeit Temperatur Wetter
Di, 29.11. 1:00 4.3° C bedeckt
Mo, 28.11. 19:00 4.8° C bedeckt
Mo, 28.11. 13:00 6.1° C bedeckt
Mo, 28.11. 7:00 2.6° C bedeckt
Mo, 28.11. 1:00 1.8° C bedeckt
So, 27.11. 19:00 2.9° C bedeckt
So, 27.11. 13:00 8.2° C leicht bewölkt
So, 27.11. 7:00 -0.3° C Nebel
Ortszeit Temperatur Wetter
Di, 29.11. 5:00 4.4° C leichter Regen
Di, 29.11. 4:50 4.4° C leichter Regen
Di, 29.11. 4:40 4.5° C leichter Regen
Di, 29.11. 4:30 4.6° C Sprühregen
Di, 29.11. 4:20 4.6° C Sprühregen
Di, 29.11. 4:10 4.5° C Sprühregen
Di, 29.11. 4:00 4.3° C Sprühregen
Di, 29.11. 3:30 3.8° C bedeckt
Di, 29.11. 3:00 3.6° C bewölkt
Di, 29.11. 2:30 3.8° C bewölkt
Di, 29.11. 2:00 4.1° C wolkig
Ortszeit Relative Feuchte Sichtweite
Di, 29.11. 1:00 84% 20 km
Mo, 28.11. 19:00 80% 23 km
Mo, 28.11. 13:00 72% 30 km
Mo, 28.11. 7:00 83% 30 km
Mo, 28.11. 1:00 92% 15 km
So, 27.11. 19:00 85% 30 km
So, 27.11. 13:00 69% 50 km
So, 27.11. 7:00 96% 1.3 km
Ortszeit Relative Feuchte Sichtweite
Di, 29.11. 5:00 89% 8 km
Di, 29.11. 4:50 89% -
Di, 29.11. 4:40 87% -
Di, 29.11. 4:30 86% 15 km
Di, 29.11. 4:20 86% -
Di, 29.11. 4:10 86% -
Di, 29.11. 4:00 86% 18 km
Di, 29.11. 3:30 89% 19 km
Di, 29.11. 3:00 89% 18 km
Di, 29.11. 2:30 88% 20 km
Di, 29.11. 2:00 86% 20 km
Ortszeit Niederschlagsmenge Niederschlagsart
Di, 29.11. 1:00 0.1 l/m2 in 6 Std. Regen
Mo, 28.11. 19:00 0.0 l/m2 in 12 Std. -
Mo, 28.11. 13:00 0.0 l/m2 in 6 Std. -
Mo, 28.11. 7:00 0.0 l/m2 in 12 Std. -
Mo, 28.11. 1:00 0.0 l/m2 in 6 Std. -
So, 27.11. 19:00 0.0 l/m2 in 12 Std. -
So, 27.11. 13:00 0.0 l/m2 in 6 Std. -
So, 27.11. 7:00 0.2 l/m2 in 12 Std. -
Ortszeit Niederschlagsmenge Niederschlagsart
Di, 29.11. 5:00 <0.05 l/m2 in 1 Std. Regen
Di, 29.11. 4:50 keine Meldung -
Di, 29.11. 4:40 keine Meldung -
Di, 29.11. 4:30 <0.05 l/m2 in 1 Std. -
Di, 29.11. 4:20 keine Meldung -
Di, 29.11. 4:10 keine Meldung -
Di, 29.11. 4:00 <0.05 l/m2 in 1 Std. Sprühregen
Di, 29.11. 3:30 0.0 l/m2 in 1 Std. -
Di, 29.11. 3:00 0.0 l/m2 in 1 Std. -
Di, 29.11. 2:30 0.0 l/m2 in 1 Std. -
Di, 29.11. 2:00 0.0 l/m2 in 1 Std. -
Ortszeit Stärke Spitze Richtung
km/h Bft. km/h Grad Sektor
Di, 29.11. 1:00 6 1 15 90° O
Mo, 28.11. 19:00 7 2 29 140° SO
Mo, 28.11. 13:00 11 2 25 140° SO
Mo, 28.11. 7:00 11 2 25 120° SO
Mo, 28.11. 1:00 6 1 20 110° O
So, 27.11. 19:00 9 2 17 130° SO
So, 27.11. 13:00 7 2 14 170° S
So, 27.11. 7:00 4 1 14 160° S
Ortszeit Stärke Spitze Richtung
km/h Bft. km/h Grad Sektor
Di, 29.11. 5:00 7 2 11 160° S
Di, 29.11. 4:50 7 2 - 160° S
Di, 29.11. 4:40 6 1 - 160° S
Di, 29.11. 4:30 7 2 11 160° S
Di, 29.11. 4:20 7 2 - 160° S
Di, 29.11. 4:10 6 1 - 160° S
Di, 29.11. 4:00 6 1 9 130° SO
Di, 29.11. 3:30 4 1 7 110° O
Di, 29.11. 3:00 4 1 7 100° O
Di, 29.11. 2:30 4 1 7 100° O
Di, 29.11. 2:00 6 1 9 120° SO
Ortszeit Untergrenze Bedeckung Gattung
total tief tief mittel hoch
Di, 29.11. 1:00 1800 m 8/8 8/8 - - -
Mo, 28.11. 19:00 2100 m 8/8 8/8 - - -
Mo, 28.11. 13:00 3000 m 8/8 8/8 - - -
Mo, 28.11. 7:00 3300 m 8/8 8/8 - - -
Mo, 28.11. 1:00 4200 m 8/8 8/8 - - -
So, 27.11. 19:00 5100 m 8/8 8/8 - - -
So, 27.11. 13:00 6600 m 4/8 4/8 - - -
So, 27.11. 7:00 9000 m 4/8 0/8 - - -
Ortszeit Bedeckungsgrad in Achtel und Wolkenuntergrenze
Di, 29.11. 5:00 8(600m)
Di, 29.11. 4:50 8(600m)
Di, 29.11. 4:40 8
Di, 29.11. 4:30 8(600m)
Di, 29.11. 4:20 8(600m)
Di, 29.11. 4:10 8
Di, 29.11. 4:00 8(600m)
Di, 29.11. 3:30 7(660m) 8(1800m) 8(4500m)
Di, 29.11. 3:00 1(690m) 7(1800m) 7(4200m)
Di, 29.11. 2:30 7(1800m) 8(3900m) 8(4500m)
Di, 29.11. 2:00 1(690m) 8(3000m) 8(4200m)
Ortszeit Luftdruck NN (hPa) Tendenz (hPa in 3 Std.)
Di, 29.11. 1:00 1016 + 0,1
Mo, 28.11. 19:00 1016 + 0,1
Mo, 28.11. 13:00 1016 - 0,7
Mo, 28.11. 7:00 1018 - 1,1
Mo, 28.11. 1:00 1021 - 1,4
So, 27.11. 19:00 1024 - 1,6
So, 27.11. 13:00 1027 - 1,4
So, 27.11. 7:00 1030 - 0,1
Ortszeit Luftdruck NN (hPa) Tendenz (hPa in 3 Std.)
Di, 29.11. 5:00 1017 + 0,4
Di, 29.11. 4:50 1017 keine Meldung
Di, 29.11. 4:40 1017 keine Meldung
Di, 29.11. 4:30 1017 + 0,2
Di, 29.11. 4:20 1017 keine Meldung
Di, 29.11. 4:10 1017 keine Meldung
Di, 29.11. 4:00 1016 + 0,1
Di, 29.11. 3:30 1016 + 0,1
Di, 29.11. 3:00 1016 + 0,2
Di, 29.11. 2:30 1016 + 0,1
Di, 29.11. 2:00 1016 + 0,1
Ortszeit Schneehöhe (cm)
Di, 29.11. 1:00 0
Mo, 28.11. 19:00 0
Mo, 28.11. 13:00 0
Mo, 28.11. 7:00 0
Mo, 28.11. 1:00 0
So, 27.11. 19:00 0
So, 27.11. 13:00 0
So, 27.11. 7:00 0
Ortszeit Schneehöhe (cm)
Di, 29.11. 5:00 0
Di, 29.11. 4:50 0
Di, 29.11. 4:40 0
Di, 29.11. 4:30 0
Di, 29.11. 4:20 0
Di, 29.11. 4:10 0
Di, 29.11. 4:00 0
Di, 29.11. 3:30 0
Di, 29.11. 3:00 0
Di, 29.11. 2:30 0
Di, 29.11. 2:00 0
Link zu dieser Seite / Seite empfehlen

Das Wetter in ...